createdAt,value
2023-01-17T00:00:29.554Z,4.60
2023-01-17T00:06:11.593Z,4.59
2023-01-17T00:11:14.964Z,4.60
2023-01-17T00:16:18.351Z,4.57
2023-01-17T00:21:40.034Z,4.56
2023-01-17T00:27:01.849Z,4.56
2023-01-17T00:32:05.231Z,4.55
2023-01-17T00:37:08.382Z,4.55
2023-01-17T00:42:11.501Z,4.56
2023-01-17T00:47:33.344Z,4.57
2023-01-17T00:52:55.284Z,4.58
2023-01-17T00:58:26.895Z,4.59
2023-01-17T01:03:48.648Z,4.59
2023-01-17T01:09:11.155Z,4.60
2023-01-17T01:14:32.885Z,4.59
2023-01-17T01:19:54.851Z,4.61
2023-01-17T01:25:17.071Z,4.64
2023-01-17T01:30:38.969Z,4.67
2023-01-17T01:35:43.174Z,4.71
2023-01-17T01:40:49.683Z,4.75
2023-01-17T01:45:56.692Z,4.75
2023-01-17T01:51:03.226Z,4.78
2023-01-17T01:56:11.187Z,4.80
2023-01-17T02:01:15.796Z,4.82
2023-01-17T02:06:27.649Z,4.83
2023-01-17T02:11:32.123Z,4.83
2023-01-17T02:17:00.023Z,4.84
2023-01-17T02:22:32.502Z,4.86
2023-01-17T02:28:10.706Z,4.87
2023-01-17T02:33:33.469Z,4.86
2023-01-17T02:38:51.427Z,4.89
2023-01-17T02:43:54.932Z,4.92
2023-01-17T02:48:59.011Z,4.94
2023-01-17T02:54:28.708Z,4.93
2023-01-17T03:00:23.011Z,4.93
2023-01-17T03:05:34.339Z,4.93
2023-01-17T03:10:39.522Z,4.94
2023-01-17T03:15:43.488Z,4.95
2023-01-17T03:20:52.968Z,4.96
2023-01-17T03:25:59.478Z,4.95
2023-01-17T03:31:02.741Z,4.95
2023-01-17T03:36:06.263Z,4.94
2023-01-17T03:41:24.541Z,4.93
2023-01-17T03:46:31.666Z,4.95
2023-01-17T03:51:35.100Z,4.93
2023-01-17T03:56:38.337Z,4.92
2023-01-17T04:01:41.844Z,4.95
2023-01-17T04:06:45.274Z,4.93
2023-01-17T04:11:51.112Z,4.91
2023-01-17T04:16:55.017Z,4.87
2023-01-17T04:22:07.290Z,4.82
2023-01-17T04:27:14.438Z,4.80
2023-01-17T04:32:26.918Z,4.76
2023-01-17T04:37:30.171Z,4.71
2023-01-17T04:42:33.504Z,4.69
2023-01-17T04:47:36.964Z,4.69
2023-01-17T04:52:46.292Z,4.70
2023-01-17T04:57:49.734Z,4.70
2023-01-17T05:03:02.430Z,4.69
2023-01-17T05:08:18.052Z,4.68
2023-01-17T05:13:21.267Z,4.66
2023-01-17T05:18:24.908Z,4.60
2023-01-17T05:23:31.072Z,4.56
2023-01-17T05:28:34.483Z,4.51
2023-01-17T05:33:40.637Z,4.46
2023-01-17T05:38:43.811Z,4.41
2023-01-17T05:44:22.097Z,4.37
2023-01-17T05:49:25.630Z,4.35
2023-01-17T05:54:29.083Z,4.32
2023-01-17T05:59:37.367Z,4.27
2023-01-17T06:04:41.087Z,4.23
2023-01-17T06:09:50.079Z,4.23
2023-01-17T06:14:53.498Z,4.18
2023-01-17T06:19:56.883Z,4.15
2023-01-17T06:25:00.281Z,4.11
2023-01-17T06:30:04.207Z,4.07
2023-01-17T06:35:07.876Z,4.03
2023-01-17T06:40:13.821Z,3.96
2023-01-17T06:45:18.039Z,3.88
2023-01-17T06:51:14.112Z,3.87
2023-01-17T06:56:17.406Z,3.85
2023-01-17T07:01:20.698Z,3.84
2023-01-17T07:06:28.940Z,3.84
2023-01-17T07:11:32.783Z,3.86
2023-01-17T07:16:36.127Z,3.87
2023-01-17T07:21:40.634Z,3.87
2023-01-17T07:26:44.006Z,3.88
2023-01-17T07:31:49.206Z,3.87
2023-01-17T07:36:54.619Z,3.91
2023-01-17T07:41:57.865Z,3.96
2023-01-17T07:47:01.364Z,4.01
2023-01-17T07:52:07.994Z,4.06
2023-01-17T07:57:14.376Z,4.13
2023-01-17T08:02:20.085Z,4.17
2023-01-17T08:07:23.250Z,4.21
2023-01-17T08:12:26.777Z,4.27
2023-01-17T08:17:30.180Z,4.32
2023-01-17T08:22:33.397Z,4.38
2023-01-17T08:27:36.983Z,4.51
2023-01-17T08:32:40.997Z,4.67
2023-01-17T08:37:44.293Z,4.78
2023-01-17T08:42:58.135Z,4.83
2023-01-17T08:48:04.521Z,4.82
2023-01-17T08:53:07.897Z,4.83
2023-01-17T08:58:11.295Z,4.88
2023-01-17T09:03:14.665Z,4.99
2023-01-17T09:08:18.392Z,5.05
2023-01-17T09:13:21.664Z,5.11
2023-01-17T09:18:26.280Z,5.16
2023-01-17T09:23:30.561Z,5.25
2023-01-17T09:28:41.114Z,5.32
2023-01-17T09:34:04.104Z,5.39
2023-01-17T09:39:23.235Z,5.41
2023-01-17T09:44:46.479Z,5.42
2023-01-17T09:49:58.541Z,5.45
2023-01-17T09:55:02.839Z,5.46
2023-01-17T10:00:43.093Z,5.47
2023-01-17T10:06:33.794Z,5.50
2023-01-17T10:12:28.656Z,5.56
2023-01-17T10:18:29.925Z,5.56
2023-01-17T10:24:25.849Z,5.52
2023-01-17T10:29:56.136Z,5.49
2023-01-17T10:35:17.934Z,5.48
2023-01-17T10:41:04.949Z,5.55
2023-01-17T10:46:28.672Z,5.62
2023-01-17T10:52:00.922Z,5.66
2023-01-17T10:57:04.914Z,5.71
2023-01-17T11:02:39.967Z,5.76
2023-01-17T11:08:11.151Z,5.77
2023-01-17T11:14:29.251Z,5.83
2023-01-17T11:20:00.127Z,5.84
2023-01-17T11:25:33.099Z,5.87
2023-01-17T11:30:51.939Z,5.92
2023-01-17T11:35:55.488Z,5.97
2023-01-17T11:41:29.538Z,6.01
2023-01-17T11:46:35.411Z,6.05
2023-01-17T11:51:43.344Z,6.05
2023-01-17T11:56:46.829Z,6.07
2023-01-17T12:01:55.888Z,6.11
2023-01-17T12:07:19.353Z,6.14
2023-01-17T12:13:15.219Z,6.13
2023-01-17T12:19:00.995Z,6.09
2023-01-17T12:24:44.881Z,6.10
2023-01-17T12:30:22.613Z,6.11
2023-01-17T12:35:41.064Z,6.11
2023-01-17T12:42:05.943Z,6.09
2023-01-17T12:47:25.908Z,6.09
2023-01-17T12:52:45.191Z,6.14
2023-01-17T12:58:17.648Z,6.18
2023-01-17T13:04:01.009Z,6.20
2023-01-17T13:09:06.087Z,6.23
2023-01-17T13:14:33.827Z,6.28
2023-01-17T13:19:52.407Z,6.37
2023-01-17T13:25:07.912Z,6.44
2023-01-17T13:30:28.229Z,6.53
2023-01-17T13:36:00.012Z,6.54
2023-01-17T13:41:37.141Z,6.47
2023-01-17T13:47:28.371Z,6.43
2023-01-17T13:53:05.940Z,6.34
2023-01-17T13:59:02.125Z,6.30
2023-01-17T14:04:08.038Z,6.29
2023-01-17T14:09:50.090Z,6.27
2023-01-17T14:15:00.724Z,6.26
2023-01-17T14:20:33.178Z,6.24
2023-01-17T14:25:44.124Z,6.21
2023-01-17T14:30:56.208Z,6.12
2023-01-17T14:36:04.127Z,5.95
2023-01-17T14:41:15.251Z,5.81
2023-01-17T14:46:36.987Z,5.68
2023-01-17T14:51:43.627Z,5.55
2023-01-17T14:58:15.292Z,5.45
2023-01-17T15:03:25.484Z,5.27
2023-01-17T15:08:40.134Z,5.09
2023-01-17T15:13:59.292Z,4.98
2023-01-17T15:19:09.759Z,4.88
2023-01-17T15:24:20.085Z,4.72
2023-01-17T15:29:31.950Z,4.53
2023-01-17T15:34:38.340Z,4.37
2023-01-17T15:39:41.826Z,4.18
2023-01-17T15:44:48.927Z,4.06
2023-01-17T15:49:53.414Z,3.94
2023-01-17T15:55:13.960Z,3.83
2023-01-17T16:00:21.059Z,3.69
2023-01-17T16:05:47.982Z,3.65
2023-01-17T16:10:56.825Z,3.51
2023-01-17T16:16:29.747Z,3.48
2023-01-17T16:21:33.244Z,3.39
2023-01-17T16:26:36.535Z,3.31
2023-01-17T16:31:39.711Z,3.22
2023-01-17T16:36:43.359Z,3.15
2023-01-17T16:48:42.812Z,2.87
2023-01-17T16:53:55.057Z,2.82
2023-01-17T16:59:09.699Z,2.80
2023-01-17T17:04:21.729Z,2.79
2023-01-17T17:09:25.294Z,2.72
2023-01-17T17:14:29.537Z,2.67
2023-01-17T17:19:38.233Z,2.64
2023-01-17T17:25:02.531Z,2.60
2023-01-17T17:30:12.519Z,2.55
2023-01-17T17:35:15.958Z,2.53
2023-01-17T17:40:19.525Z,2.50
2023-01-17T17:45:31.748Z,2.47
2023-01-17T17:50:37.851Z,2.46
2023-01-17T17:55:41.145Z,2.48
2023-01-17T18:08:14.523Z,2.36
2023-01-17T18:19:30.306Z,2.22
2023-01-17T18:24:43.117Z,2.19
2023-01-17T18:29:46.463Z,2.11
2023-01-17T18:35:17.580Z,2.12
2023-01-17T18:41:10.267Z,2.09
2023-01-17T18:52:58.374Z,1.95
2023-01-17T18:58:34.934Z,1.92
2023-01-17T19:04:47.263Z,1.87
2023-01-17T19:10:19.971Z,1.92
2023-01-17T19:15:53.912Z,1.90
2023-01-17T19:21:07.470Z,1.88
2023-01-17T19:26:12.677Z,1.85
2023-01-17T19:31:21.092Z,1.84
2023-01-17T19:36:42.324Z,1.82
2023-01-17T19:41:56.967Z,1.88
2023-01-17T19:47:21.344Z,1.88
2023-01-17T19:52:54.936Z,1.83
2023-01-17T19:58:31.484Z,1.79
2023-01-17T20:03:35.217Z,1.81
2023-01-17T20:08:38.778Z,1.76
2023-01-17T20:13:42.463Z,1.80
2023-01-17T20:18:45.946Z,1.79
2023-01-17T20:23:51.110Z,1.77
2023-01-17T20:28:54.692Z,1.76
2023-01-17T20:33:58.316Z,1.75
2023-01-17T20:39:04.211Z,1.72
2023-01-17T20:44:11.100Z,1.70
2023-01-17T20:49:28.029Z,1.71
2023-01-17T20:54:31.176Z,1.70
2023-01-17T20:59:34.406Z,1.59
2023-01-17T21:04:37.749Z,1.58
2023-01-17T21:09:43.019Z,1.59
2023-01-17T21:14:46.900Z,1.52
2023-01-17T21:19:50.130Z,1.47
2023-01-17T21:24:54.255Z,1.43
2023-01-17T21:29:57.516Z,1.37
2023-01-17T21:35:00.808Z,1.34
2023-01-17T21:40:05.339Z,1.29
2023-01-17T21:45:09.739Z,1.33
2023-01-17T21:50:22.203Z,1.34
2023-01-17T21:55:50.955Z,1.36
2023-01-17T22:01:07.810Z,1.43
2023-01-17T22:06:11.783Z,1.50
2023-01-17T22:11:18.463Z,1.50
2023-01-17T22:16:24.303Z,1.50
2023-01-17T22:21:28.842Z,1.56
2023-01-17T22:26:32.312Z,1.50
2023-01-17T22:31:35.587Z,1.53
2023-01-17T22:36:39.922Z,1.55
2023-01-17T22:41:43.249Z,1.59
2023-01-17T22:46:46.543Z,1.64
2023-01-17T22:51:52.964Z,1.64
2023-01-17T22:56:56.459Z,1.67
2023-01-17T23:02:00.693Z,1.69
2023-01-17T23:07:04.305Z,1.70
2023-01-17T23:12:08.272Z,1.73
2023-01-17T23:17:30.171Z,1.76
2023-01-17T23:22:33.551Z,1.81
2023-01-17T23:28:03.591Z,1.86
2023-01-17T23:33:18.196Z,1.89
2023-01-17T23:38:30.698Z,1.94
2023-01-17T23:43:37.683Z,1.93
2023-01-17T23:48:52.371Z,1.92
2023-01-17T23:54:05.422Z,1.92
2023-01-17T23:59:09.249Z,1.95
